createdAt,value
2022-08-09T00:00:14.231Z,101238.22
2022-08-09T00:02:43.075Z,101244.78
2022-08-09T00:06:18.424Z,101240.59
2022-08-09T00:08:10.254Z,101246.59
2022-08-09T00:10:39.395Z,101237.34
2022-08-09T00:13:17.028Z,101239.03
2022-08-09T00:15:59.159Z,101247.09
2022-08-09T00:18:34.829Z,101248.50
2022-08-09T00:21:05.046Z,101248.28
2022-08-09T00:23:56.723Z,101253.34
2022-08-09T00:26:19.925Z,101253.47
2022-08-09T00:28:57.603Z,101252.38
2022-08-09T00:31:57.328Z,101249.53
2022-08-09T00:34:12.923Z,101251.41
2022-08-09T00:36:40.145Z,101251.69
2022-08-09T00:39:16.931Z,101249.81
2022-08-09T00:44:19.801Z,101252.75
2022-08-09T00:44:43.304Z,101255.72
2022-08-09T00:47:15.932Z,101245.84
2022-08-09T00:49:52.416Z,101247.22
2022-08-09T00:52:30.034Z,101250.16
2022-08-09T00:55:00.420Z,101251.81
2022-08-09T00:57:34.763Z,101243.28
2022-08-09T01:00:21.970Z,101245.34
2022-08-09T01:02:53.826Z,101239.22
2022-08-09T01:05:51.740Z,101239.53
2022-08-09T01:08:26.657Z,101241.16
2022-08-09T01:10:56.877Z,101239.75
2022-08-09T01:13:42.033Z,101241.91
2022-08-09T01:16:24.887Z,101242.94
2022-08-09T01:19:02.484Z,101242.41
2022-08-09T01:21:53.692Z,101238.63
2022-08-09T01:24:35.331Z,101243.47
2022-08-09T01:27:10.335Z,101252.31
2022-08-09T01:29:55.698Z,101246.09
2022-08-09T01:32:31.831Z,101251.47
2022-08-09T01:35:29.147Z,101252.94
2022-08-09T01:38:10.049Z,101247.78
2022-08-09T01:40:53.027Z,101247.53
2022-08-09T01:43:42.234Z,101239.25
2022-08-09T01:46:27.152Z,101241.44
2022-08-09T01:48:59.763Z,101240.63
2022-08-09T01:51:32.546Z,101245.56
2022-08-09T01:54:04.188Z,101239.00
2022-08-09T01:56:33.500Z,101245.72
2022-08-09T01:59:06.332Z,101238.75
2022-08-09T02:01:58.413Z,101232.75
2022-08-09T02:04:25.118Z,101242.03
2022-08-09T02:07:18.576Z,101229.31
2022-08-09T02:10:07.716Z,101235.09
2022-08-09T02:12:35.662Z,101237.84
2022-08-09T02:15:06.459Z,101233.38
2022-08-09T02:17:59.933Z,101230.28
2022-08-09T02:20:26.226Z,101225.34
2022-08-09T02:23:17.035Z,101233.03
2022-08-09T02:25:52.514Z,101232.81
2022-08-09T02:28:25.341Z,101229.69
2022-08-09T02:31:01.463Z,101226.81
2022-08-09T02:33:37.956Z,101231.97
2022-08-09T02:36:26.971Z,101230.28
2022-08-09T02:38:58.937Z,101233.53
2022-08-09T02:41:52.778Z,101230.41
2022-08-09T02:44:29.376Z,101231.97
2022-08-09T02:47:01.520Z,101231.84
2022-08-09T02:49:38.366Z,101241.41
2022-08-09T02:52:07.947Z,101236.97
2022-08-09T02:54:54.235Z,101238.53
2022-08-09T02:57:24.001Z,101254.28
2022-08-09T03:00:20.986Z,101248.91
2022-08-09T03:03:00.265Z,101251.91
2022-08-09T03:05:28.641Z,101252.13
2022-08-09T03:07:56.012Z,101254.28
2022-08-09T03:10:26.180Z,101253.91
2022-08-09T03:12:55.097Z,101248.50
2022-08-09T03:15:25.384Z,101251.97
2022-08-09T03:18:13.753Z,101236.97
2022-08-09T03:20:46.373Z,101242.00
2022-08-09T03:23:15.415Z,101238.19
2022-08-09T03:25:59.043Z,101243.78
2022-08-09T03:28:32.819Z,101247.09
2022-08-09T03:31:04.401Z,101249.84
2022-08-09T03:33:54.287Z,101258.56
2022-08-09T03:36:27.452Z,101251.84
2022-08-09T03:38:55.249Z,101256.75
2022-08-09T03:41:29.872Z,101258.28
2022-08-09T03:44:10.348Z,101261.19
2022-08-09T03:46:39.344Z,101256.16
2022-08-09T03:49:08.488Z,101267.63
2022-08-09T03:51:57.123Z,101268.09
2022-08-09T03:54:32.247Z,101271.31
2022-08-09T03:57:04.503Z,101266.72
2022-08-09T03:59:53.296Z,101270.56
2022-08-09T04:02:27.278Z,101274.16
2022-08-09T04:05:00.729Z,101277.34
2022-08-09T04:07:47.936Z,101264.91
2022-08-09T04:10:18.419Z,101278.03
2022-08-09T04:12:50.877Z,101271.69
2022-08-09T04:15:39.180Z,101271.94
2022-08-09T04:18:08.672Z,101265.84
2022-08-09T04:20:35.457Z,101268.66
2022-08-09T04:23:03.560Z,101267.56
2022-08-09T04:25:37.037Z,101264.91
2022-08-09T04:28:04.140Z,101270.88
2022-08-09T04:30:31.816Z,101265.22
2022-08-09T04:33:01.279Z,101263.75
2022-08-09T04:35:29.420Z,101261.22
2022-08-09T04:37:59.936Z,101253.59
2022-08-09T04:40:48.348Z,101259.72
2022-08-09T04:43:23.319Z,101254.66
2022-08-09T04:45:53.290Z,101269.50
2022-08-09T04:48:23.900Z,101271.66
2022-08-09T04:51:00.133Z,101281.81
2022-08-09T04:53:28.722Z,101280.94
2022-08-09T04:55:59.650Z,101283.09
2022-08-09T04:58:29.064Z,101278.44
2022-08-09T05:00:59.299Z,101271.00
2022-08-09T05:03:40.234Z,101283.53
2022-08-09T05:06:22.113Z,101288.22
2022-08-09T05:09:00.321Z,101286.09
2022-08-09T05:11:32.332Z,101290.75
2022-08-09T05:14:05.904Z,101293.88
2022-08-09T05:16:58.473Z,101293.19
2022-08-09T05:19:25.729Z,101301.22
2022-08-09T05:21:55.733Z,101293.13
2022-08-09T05:24:24.555Z,101297.31
2022-08-09T05:26:52.872Z,101296.41
2022-08-09T05:29:21.312Z,101310.34
2022-08-09T05:31:56.329Z,101309.88
2022-08-09T05:34:31.012Z,101310.47
2022-08-09T05:37:05.215Z,101305.44
2022-08-09T05:39:43.964Z,101308.81
2022-08-09T05:42:16.931Z,101310.63
2022-08-09T05:44:43.959Z,101312.25
2022-08-09T05:47:10.802Z,101311.31
2022-08-09T05:50:23.579Z,101305.25
2022-08-09T05:52:24.955Z,101311.06
2022-08-09T05:54:51.926Z,101305.84
2022-08-09T05:57:19.207Z,101313.09
2022-08-09T05:59:46.618Z,101319.47
2022-08-09T06:02:16.770Z,101310.84
2022-08-09T06:04:46.091Z,101303.31
2022-08-09T06:07:21.409Z,101305.16
2022-08-09T06:10:01.980Z,101316.66
2022-08-09T06:12:29.955Z,101309.84
2022-08-09T06:15:00.996Z,101314.25
2022-08-09T06:17:40.468Z,101304.28
2022-08-09T06:20:08.611Z,101315.50
2022-08-09T06:22:35.937Z,101309.69
2022-08-09T06:25:04.002Z,101305.78
2022-08-09T06:27:42.513Z,101310.19
2022-08-09T06:30:14.103Z,101310.47
2022-08-09T06:32:59.876Z,101321.13
2022-08-09T06:35:55.652Z,101323.22
2022-08-09T06:38:17.061Z,101317.13
2022-08-09T06:40:46.176Z,101322.91
2022-08-09T06:43:14.251Z,101322.84
2022-08-09T06:46:07.478Z,101319.66
2022-08-09T06:48:31.009Z,101315.34
2022-08-09T06:51:00.229Z,101324.16
2022-08-09T06:53:27.643Z,101327.13
2022-08-09T06:56:09.217Z,101324.47
2022-08-09T07:00:47.063Z,101329.53
2022-08-09T07:01:24.067Z,101328.03
2022-08-09T07:03:57.805Z,101331.25
2022-08-09T07:06:30.669Z,101340.00
2022-08-09T07:08:58.334Z,101343.16
2022-08-09T07:11:25.724Z,101341.66
2022-08-09T07:14:05.469Z,101342.09
2022-08-09T07:16:42.974Z,101354.44
2022-08-09T07:19:18.676Z,101349.53
2022-08-09T07:21:57.088Z,101350.03
2022-08-09T07:24:32.504Z,101344.66
2022-08-09T07:27:23.900Z,101348.31
2022-08-09T07:29:56.774Z,101344.59
2022-08-09T07:32:33.323Z,101354.91
2022-08-09T07:35:08.256Z,101352.97
2022-08-09T07:37:43.698Z,101354.97
2022-08-09T07:40:18.595Z,101351.13
2022-08-09T07:42:58.867Z,101359.28
2022-08-09T07:45:39.283Z,101350.69
2022-08-09T07:49:15.192Z,101351.06
2022-08-09T07:52:05.878Z,101342.75
2022-08-09T07:54:31.733Z,101351.84
2022-08-09T08:00:35.839Z,101355.41
2022-08-09T08:03:08.355Z,101350.19
2022-08-09T08:05:54.302Z,101348.25
2022-08-09T08:09:01.059Z,101351.34
2022-08-09T08:12:24.445Z,101349.16
2022-08-09T08:13:59.873Z,101360.63
2022-08-09T08:16:29.764Z,101361.75
2022-08-09T08:19:03.092Z,101368.38
2022-08-09T08:21:31.561Z,101371.41
2022-08-09T08:24:00.918Z,101365.56
2022-08-09T08:26:54.816Z,101366.19
2022-08-09T08:29:20.225Z,101374.28
2022-08-09T08:32:04.517Z,101379.09
2022-08-09T08:34:34.601Z,101378.25
2022-08-09T08:37:02.674Z,101384.66
2022-08-09T08:39:40.021Z,101383.53
2022-08-09T08:42:11.675Z,101381.59
2022-08-09T08:44:39.943Z,101385.25
2022-08-09T08:47:13.015Z,101390.25
2022-08-09T08:49:47.940Z,101385.28
2022-08-09T08:55:09.850Z,101369.19
2022-08-09T08:57:37.477Z,101365.25
2022-08-09T09:00:20.282Z,101367.22
2022-08-09T09:03:04.414Z,101361.63
2022-08-09T09:05:58.346Z,101360.78
2022-08-09T09:08:30.347Z,101355.47
2022-08-09T09:11:03.341Z,101354.09
2022-08-09T09:13:55.848Z,101349.84
2022-08-09T09:16:30.872Z,101352.88
2022-08-09T09:19:41.195Z,101348.91
2022-08-09T09:21:58.225Z,101348.56
2022-08-09T09:24:29.814Z,101356.06
2022-08-09T09:26:58.370Z,101361.03
2022-08-09T09:29:46.089Z,101359.09
2022-08-09T09:32:34.533Z,101360.47
2022-08-09T09:35:09.079Z,101359.28
2022-08-09T09:37:40.554Z,101363.44
2022-08-09T09:40:09.471Z,101349.69
2022-08-09T09:42:36.492Z,101351.94
2022-08-09T09:45:08.274Z,101348.44
2022-08-09T09:47:47.910Z,101354.22
2022-08-09T09:50:49.257Z,101348.25
2022-08-09T09:53:43.622Z,101342.00
2022-08-09T09:56:30.836Z,101350.84
2022-08-09T09:58:58.270Z,101343.00
2022-08-09T10:01:37.412Z,101347.13
2022-08-09T10:04:23.016Z,101343.78
2022-08-09T10:06:58.165Z,101339.88
2022-08-09T10:09:25.806Z,101335.66
2022-08-09T10:12:14.586Z,101342.31
2022-08-09T10:14:48.736Z,101345.88
2022-08-09T10:17:40.124Z,101332.09
2022-08-09T10:20:35.479Z,101330.31
2022-08-09T10:23:32.173Z,101327.13
2022-08-09T10:26:07.956Z,101322.91
2022-08-09T10:28:40.588Z,101324.44
2022-08-09T10:34:10.035Z,101326.53
2022-08-09T10:36:49.931Z,101320.03
2022-08-09T10:39:19.528Z,101319.91
2022-08-09T10:41:48.187Z,101311.94
2022-08-09T10:44:21.648Z,101316.25
2022-08-09T10:48:12.175Z,101314.44
2022-08-09T10:50:07.077Z,101321.03
2022-08-09T10:52:45.924Z,101318.03
2022-08-09T10:55:55.252Z,101314.72
2022-08-09T10:58:37.219Z,101320.75
2022-08-09T11:03:03.192Z,101312.25
2022-08-09T11:04:27.807Z,101315.56
2022-08-09T11:07:03.636Z,101304.91
2022-08-09T11:09:48.313Z,101307.56
2022-08-09T11:12:26.458Z,101309.25
2022-08-09T11:15:23.764Z,101308.22
2022-08-09T11:18:03.738Z,101300.28
2022-08-09T11:20:49.749Z,101298.78
2022-08-09T11:23:17.236Z,101288.31
2022-08-09T11:25:56.707Z,101292.38
2022-08-09T11:28:56.364Z,101289.06
2022-08-09T11:31:50.380Z,101278.91
2022-08-09T11:34:44.111Z,101285.69
2022-08-09T11:37:26.182Z,101284.38
2022-08-09T11:40:04.606Z,101286.66
2022-08-09T11:42:47.123Z,101284.16
2022-08-09T11:45:42.607Z,101281.13
2022-08-09T11:48:26.718Z,101281.63
2022-08-09T11:52:50.021Z,101281.75
2022-08-09T11:53:59.917Z,101278.00
2022-08-09T11:56:41.554Z,101281.25
2022-08-09T11:59:11.699Z,101271.81
2022-08-09T12:02:21.287Z,101275.09
2022-08-09T12:04:37.040Z,101267.69
2022-08-09T12:07:07.798Z,101263.00
2022-08-09T12:09:36.261Z,101268.59
2022-08-09T12:12:20.490Z,101254.38
2022-08-09T12:15:03.959Z,101248.38
2022-08-09T12:17:42.252Z,101251.63
2022-08-09T12:20:22.279Z,101248.59
2022-08-09T12:22:55.823Z,101250.72
2022-08-09T12:25:37.891Z,101244.25
2022-08-09T12:29:15.410Z,101241.63
2022-08-09T12:31:01.713Z,101241.97
2022-08-09T12:33:51.450Z,101231.13
2022-08-09T12:36:32.402Z,101233.06
2022-08-09T12:39:01.122Z,101224.84
2022-08-09T12:41:34.885Z,101235.00
2022-08-09T12:44:08.014Z,101229.34
2022-08-09T12:46:39.730Z,101225.16
2022-08-09T12:49:08.854Z,101213.59
2022-08-09T12:52:00.052Z,101223.44
2022-08-09T12:54:24.057Z,101216.63
2022-08-09T12:56:54.419Z,101221.28
2022-08-09T12:59:24.054Z,101215.94
2022-08-09T13:01:59.839Z,101206.63
2022-08-09T13:04:36.558Z,101212.00
2022-08-09T13:07:19.705Z,101221.47
2022-08-09T13:10:15.891Z,101208.94
2022-08-09T13:13:09.552Z,101201.25
2022-08-09T13:15:36.359Z,101203.50
2022-08-09T13:18:09.643Z,101199.72
2022-08-09T13:22:33.156Z,101195.25
2022-08-09T13:24:06.733Z,101195.69
2022-08-09T13:26:37.228Z,101188.38
2022-08-09T13:29:16.458Z,101188.91
2022-08-09T13:32:20.324Z,101190.09
2022-08-09T13:34:50.565Z,101193.09
2022-08-09T13:37:24.570Z,101192.50
2022-08-09T13:41:51.051Z,101186.81
2022-08-09T13:42:55.897Z,101188.75
2022-08-09T13:45:31.853Z,101187.75
2022-08-09T13:47:59.298Z,101185.38
2022-08-09T13:50:31.051Z,101188.22
2022-08-09T13:52:59.174Z,101190.84
2022-08-09T13:55:29.062Z,101182.41
2022-08-09T13:57:58.366Z,101178.78
2022-08-09T14:00:28.378Z,101183.06
2022-08-09T14:03:02.889Z,101186.38
2022-08-09T14:05:59.122Z,101186.91
2022-08-09T14:08:30.686Z,101175.22
2022-08-09T14:10:59.621Z,101181.47
2022-08-09T14:14:24.439Z,101177.19
2022-08-09T14:16:28.770Z,101177.91
2022-08-09T14:18:57.315Z,101174.28
2022-08-09T14:21:29.078Z,101162.75
2022-08-09T14:23:57.509Z,101163.75
2022-08-09T14:26:32.593Z,101161.94
2022-08-09T14:29:08.130Z,101160.13
2022-08-09T14:31:53.842Z,101160.78
2022-08-09T14:34:32.261Z,101155.66
2022-08-09T14:37:06.044Z,101159.13
2022-08-09T14:39:45.421Z,101151.50
2022-08-09T14:42:31.102Z,101151.84
2022-08-09T14:46:40.385Z,101149.66
2022-08-09T14:47:49.644Z,101150.84
2022-08-09T14:50:24.668Z,101147.56
2022-08-09T14:52:51.541Z,101142.56
2022-08-09T14:55:20.310Z,101142.56
2022-08-09T14:57:48.960Z,101145.88
2022-08-09T15:00:16.384Z,101141.25
2022-08-09T15:02:47.562Z,101146.22
2022-08-09T15:05:18.730Z,101143.75
2022-08-09T15:07:54.921Z,101141.09
2022-08-09T15:10:25.454Z,101151.00
2022-08-09T15:12:54.120Z,101140.41
2022-08-09T15:15:21.770Z,101138.41
2022-08-09T15:17:52.820Z,101141.75
2022-08-09T15:21:54.617Z,101135.75
2022-08-09T15:24:01.045Z,101139.91
2022-08-09T15:25:58.375Z,101129.63
2022-08-09T15:28:28.279Z,101136.03
2022-08-09T15:31:08.627Z,101126.59
2022-08-09T15:34:17.249Z,101122.94
2022-08-09T15:36:29.377Z,101122.91
2022-08-09T15:38:58.884Z,101130.69
2022-08-09T15:41:31.165Z,101131.03
2022-08-09T15:44:01.915Z,101116.59
2022-08-09T15:46:34.159Z,101120.38
2022-08-09T15:49:22.627Z,101114.09
2022-08-09T15:52:03.943Z,101118.50
2022-08-09T15:54:44.701Z,101107.94
2022-08-09T15:57:34.165Z,101113.03
2022-08-09T16:00:13.755Z,101109.00
2022-08-09T16:02:53.539Z,101096.59
2022-08-09T16:05:23.783Z,101099.22
2022-08-09T16:07:51.173Z,101105.50
2022-08-09T16:10:54.965Z,101099.94
2022-08-09T16:14:01.682Z,101100.28
2022-08-09T16:16:11.375Z,101092.03
2022-08-09T16:18:44.843Z,101092.03
2022-08-09T16:21:17.494Z,101089.75
2022-08-09T16:23:55.531Z,101090.06
2022-08-09T16:26:35.406Z,101088.44
2022-08-09T16:29:10.675Z,101083.13
2022-08-09T16:32:19.941Z,101079.81
2022-08-09T16:34:28.968Z,101077.66
2022-08-09T16:36:56.978Z,101073.69
2022-08-09T16:39:25.988Z,101073.50
2022-08-09T16:42:04.116Z,101067.06
2022-08-09T16:44:32.305Z,101075.47
2022-08-09T16:47:04.250Z,101079.03
2022-08-09T16:50:29.571Z,101079.03
2022-08-09T16:52:34.845Z,101080.88
2022-08-09T16:55:02.647Z,101076.38
2022-08-09T16:58:08.468Z,101087.63
2022-08-09T17:00:17.261Z,101084.66
2022-08-09T17:02:46.324Z,101085.19
2022-08-09T17:05:14.406Z,101083.34
2022-08-09T17:08:46.216Z,101095.56
2022-08-09T17:10:36.613Z,101083.94
2022-08-09T17:13:03.707Z,101089.06
2022-08-09T17:15:58.853Z,101084.13
2022-08-09T17:18:27.076Z,101087.44
2022-08-09T17:20:57.299Z,101082.34
2022-08-09T17:24:20.911Z,101081.81
2022-08-09T17:26:13.179Z,101076.19
2022-08-09T17:28:44.362Z,101077.03
2022-08-09T17:31:11.269Z,101077.03
2022-08-09T17:33:43.449Z,101076.53
2022-08-09T17:36:10.963Z,101074.34
2022-08-09T17:38:42.400Z,101075.50
2022-08-09T17:41:25.758Z,101079.63
2022-08-09T17:44:38.715Z,101083.28
2022-08-09T17:46:55.744Z,101084.63
2022-08-09T17:49:24.506Z,101076.50
2022-08-09T17:51:52.464Z,101077.47
2022-08-09T17:54:19.307Z,101080.28
2022-08-09T17:56:55.039Z,101071.69
2022-08-09T17:59:22.005Z,101080.13
2022-08-09T18:02:07.692Z,101070.03
2022-08-09T18:04:37.347Z,101071.53
2022-08-09T18:07:07.887Z,101067.22
2022-08-09T18:09:40.446Z,101079.63
2022-08-09T18:12:17.699Z,101072.34
2022-08-09T18:14:53.716Z,101078.63
2022-08-09T18:17:27.739Z,101069.50
2022-08-09T18:20:59.099Z,101086.38
2022-08-09T18:23:05.725Z,101079.91
2022-08-09T18:25:51.260Z,101081.72
2022-08-09T18:30:35.442Z,101082.97
2022-08-09T18:31:12.026Z,101075.34
2022-08-09T18:33:40.392Z,101086.69
2022-08-09T18:36:14.134Z,101082.72
2022-08-09T18:38:55.035Z,101082.56
2022-08-09T18:41:27.446Z,101082.50
2022-08-09T18:43:54.584Z,101082.28
2022-08-09T18:46:50.074Z,101082.94
2022-08-09T18:49:08.798Z,101082.75
2022-08-09T18:51:38.817Z,101074.13
2022-08-09T18:54:29.498Z,101077.06
2022-08-09T18:57:06.227Z,101076.38
2022-08-09T18:59:49.109Z,101071.72
2022-08-09T19:02:19.196Z,101082.84
2022-08-09T19:05:03.295Z,101087.00
2022-08-09T19:07:31.624Z,101081.19
2022-08-09T19:10:15.473Z,101080.59
2022-08-09T19:12:50.297Z,101082.72
2022-08-09T19:15:25.829Z,101085.63
2022-08-09T19:17:54.953Z,101085.38
2022-08-09T19:20:23.924Z,101086.78
2022-08-09T19:22:54.824Z,101085.94
2022-08-09T19:25:41.988Z,101083.41
2022-08-09T19:28:13.205Z,101091.19
2022-08-09T19:30:44.569Z,101093.94
2022-08-09T19:33:19.585Z,101093.13
2022-08-09T19:35:58.180Z,101098.66
2022-08-09T19:38:27.212Z,101099.97
2022-08-09T19:40:54.561Z,101100.72
2022-08-09T19:44:00.350Z,101100.59
2022-08-09T19:46:14.649Z,101110.81
2022-08-09T19:49:01.585Z,101109.81
2022-08-09T19:51:30.741Z,101118.13
2022-08-09T19:54:01.796Z,101115.22
2022-08-09T19:56:29.714Z,101123.72
2022-08-09T19:59:40.157Z,101119.38
2022-08-09T20:02:03.025Z,101125.09
2022-08-09T20:04:40.289Z,101122.63
2022-08-09T20:07:21.413Z,101131.41
2022-08-09T20:09:49.685Z,101130.59
2022-08-09T20:12:30.027Z,101134.28
2022-08-09T20:16:35.864Z,101132.09
2022-08-09T20:17:54.487Z,101127.13
2022-08-09T20:20:24.678Z,101138.03
2022-08-09T20:22:56.462Z,101142.53
2022-08-09T20:25:24.075Z,101140.03
2022-08-09T20:27:52.310Z,101139.53
2022-08-09T20:30:23.662Z,101136.22
2022-08-09T20:32:52.287Z,101134.00
2022-08-09T20:35:20.773Z,101138.25
2022-08-09T20:38:18.965Z,101135.19
2022-08-09T20:40:36.786Z,101139.38
2022-08-09T20:43:18.384Z,101148.28
2022-08-09T20:45:59.591Z,101144.69
2022-08-09T20:48:39.895Z,101140.22
2022-08-09T20:51:19.233Z,101141.91
2022-08-09T20:53:46.791Z,101146.38
2022-08-09T20:56:20.687Z,101135.81
2022-08-09T20:58:54.579Z,101140.53
2022-08-09T21:01:34.842Z,101140.25
2022-08-09T21:05:53.040Z,101144.69
2022-08-09T21:07:11.514Z,101145.81
2022-08-09T21:09:56.133Z,101151.38
2022-08-09T21:15:14.353Z,101161.38
2022-08-09T21:18:23.586Z,101157.75
2022-08-09T21:20:31.016Z,101156.06
2022-08-09T21:22:59.290Z,101159.38
2022-08-09T21:25:55.853Z,101154.06
2022-08-09T21:28:36.456Z,101150.16
2022-08-09T21:31:13.531Z,101153.22
2022-08-09T21:33:50.410Z,101152.06
2022-08-09T21:36:28.014Z,101142.34
2022-08-09T21:38:57.958Z,101151.22
2022-08-09T21:42:03.973Z,101159.53
2022-08-09T21:44:33.123Z,101157.28
2022-08-09T21:47:07.699Z,101148.94
2022-08-09T21:49:39.945Z,101143.06
2022-08-09T21:52:15.044Z,101144.94
2022-08-09T21:54:49.540Z,101140.47
2022-08-09T21:57:37.621Z,101142.09
2022-08-09T22:00:25.561Z,101146.47
2022-08-09T22:02:59.125Z,101141.44
2022-08-09T22:05:35.910Z,101143.66
2022-08-09T22:08:13.514Z,101143.63
2022-08-09T22:11:00.349Z,101148.56
2022-08-09T22:13:34.093Z,101151.84
2022-08-09T22:16:07.607Z,101156.84
2022-08-09T22:18:37.450Z,101157.34
2022-08-09T22:21:09.880Z,101153.19
2022-08-09T22:24:01.221Z,101156.19
2022-08-09T22:26:35.544Z,101156.19
2022-08-09T22:29:09.490Z,101158.38
2022-08-09T22:31:44.286Z,101161.63
2022-08-09T22:34:25.892Z,101162.41
2022-08-09T22:36:58.277Z,101161.22
2022-08-09T22:39:55.321Z,101158.13
2022-08-09T22:42:21.308Z,101158.66
2022-08-09T22:48:05.812Z,101159.72
2022-08-09T22:48:16.425Z,101159.44
2022-08-09T22:50:27.825Z,101153.59
2022-08-09T22:52:54.937Z,101161.09
2022-08-09T22:55:25.485Z,101154.97
2022-08-09T22:58:00.720Z,101148.25
2022-08-09T23:00:31.833Z,101148.53
2022-08-09T23:02:58.817Z,101152.66
2022-08-09T23:05:25.987Z,101144.53
2022-08-09T23:08:27.367Z,101148.13
2022-08-09T23:10:56.745Z,101152.84
2022-08-09T23:13:23.587Z,101150.28
2022-08-09T23:16:03.297Z,101157.44
2022-08-09T23:18:31.275Z,101160.75
2022-08-09T23:20:58.166Z,101175.69
2022-08-09T23:23:25.023Z,101165.28
2022-08-09T23:25:51.930Z,101173.50
2022-08-09T23:28:18.840Z,101159.28
2022-08-09T23:30:51.159Z,101162.25
2022-08-09T23:33:20.831Z,101159.78
2022-08-09T23:36:06.618Z,101160.91
2022-08-09T23:38:35.094Z,101160.91
2022-08-09T23:41:03.076Z,101164.25
2022-08-09T23:43:29.917Z,101156.97
2022-08-09T23:45:56.745Z,101161.19
2022-08-09T23:48:24.200Z,101160.84
2022-08-09T23:50:51.019Z,101161.69
2022-08-09T23:53:17.852Z,101162.00
2022-08-09T23:55:49.371Z,101150.38
2022-08-09T23:58:25.892Z,101159.88
